KHVE/HVE METAR and TAF weather

Enter ICAO airport designator
Station Type Date Time Source
KHVE METAR 2019/05/23 19:35 UTC NOAA

KHVE 231935Z AUTO 14020G24KT 10SM SCT020 SCT044 SCT085 10/05 A2980 RMK AO2


Station Type Date Time Source
KHVE Decoded METAR 2019/05/23 19:35 UTC NOAA

Station name not available
May 23, 2019 - 03:35 PM EDT / 2019.05.23 1935 UTC
Wind: from the SE (140 degrees) at 23 MPH (20 KT) gusting to 28 MPH (24 KT):0
Visibility: 10 mile(s):0
Sky conditions: partly cloudy
Temperature: 50 F (10 C)
Dew Point: 41 F (5 C)
Relative Humidity: 71%
Pressure (altimeter): 29.8 in. Hg (1009 hPa)
ob: KHVE 231935Z AUTO 14020G24KT 10SM SCT020 SCT044 SCT085 10/05 A2980 RMK AO2
cycle: 19

Station Type Date Time Source
KHVE TAF UTC NOAA

Error!

Example: see airport list